Time;durP1;ratioP1;P1;durP2;ratioP2;P2;SDS_P1;SDS_P2;PMS_P1;PMS_P2;Temp;Humidity;BMP_temperature;BMP_pressure;BME280_temperature;BME280_humidity;BME280_pressure;Samples;Min_cycle;Max_cycle;Signal;HPM_P1;HPM_P2
2023/01/07 00:01:02;;;;;;;6.50;4.03;;;;;;;4.98;55.11;101474.88;5061763;28;20438;-67
2023/01/07 00:03:28;;;;;;;13.95;4.60;;;;;;;4.78;55.78;101459.44;5060233;28;20131;-66
2023/01/07 00:06:00;;;;;;;9.07;3.08;;;;;;;5.04;55.16;101471.41;5062114;28;20036;-67
2023/01/07 00:08:29;;;;;;;9.82;4.15;;;;;;;5.02;55.52;101461.03;5059143;28;20110;-66
2023/01/07 00:10:55;;;;;;;6.55;3.60;;;;;;;5.03;55.81;101456.72;5063339;28;20365;-66
2023/01/07 00:13:23;;;;;;;10.05;5.63;;;;;;;4.97;56.27;101456.78;5058937;28;20570;-65
2023/01/07 00:15:48;;;;;;;15.05;5.78;;;;;;;5.21;55.52;101460.91;5059847;28;20388;-66
2023/01/07 00:18:14;;;;;;;15.63;5.07;;;;;;;5.38;55.16;101455.56;5076793;28;20044;-66
2023/01/07 00:20:39;;;;;;;13.52;5.95;;;;;;;5.51;55.01;101439.03;5054381;28;20340;-66
2023/01/07 00:23:04;;;;;;;12.77;5.70;;;;;;;5.55;55.06;101448.50;5061635;28;20048;-66
2023/01/07 00:25:30;;;;;;;14.43;6.45;;;;;;;5.48;55.73;101444.25;5057691;28;20639;-66
2023/01/07 00:27:55;;;;;;;14.35;6.40;;;;;;;5.59;55.72;101438.94;5066997;28;20243;-67
2023/01/07 00:30:21;;;;;;;12.52;7.15;;;;;;;5.38;56.86;101440.03;5061613;28;20576;-67
2023/01/07 00:32:58;;;;;;;17.60;7.32;;;;;;;5.18;57.44;101435.00;5064172;28;20539;-67
2023/01/07 00:35:24;;;;;;;20.27;8.07;;;;;;;5.40;56.83;101428.75;5061136;28;20059;-67
2023/01/07 00:37:51;;;;;;;18.15;8.27;;;;;;;5.65;56.35;101431.97;5062215;28;20469;-67
2023/01/07 00:40:17;;;;;;;16.25;7.95;;;;;;;5.54;57.02;101432.94;5056691;28;20075;-67
2023/01/07 00:42:53;;;;;;;20.42;8.35;;;;;;;5.51;57.15;101423.47;5061202;28;20044;-67
2023/01/07 00:45:19;;;;;;;17.58;9.48;;;;;;;5.54;57.67;101415.66;5058257;28;20122;-67
2023/01/07 00:47:55;;;;;;;21.25;9.77;;;;;;;5.49;57.96;101416.59;5064197;28;20063;-67
2023/01/07 00:50:22;;;;;;;20.55;10.02;;;;;;;5.58;57.54;101425.13;5059073;28;20056;-67
2023/01/07 00:52:50;;;;;;;19.42;9.63;;;;;;;5.65;57.70;101421.59;5054857;28;20094;-67
2023/01/07 00:55:16;;;;;;;24.20;10.95;;;;;;;5.41;58.84;101416.66;5060177;28;20047;-67
2023/01/07 00:57:44;;;;;;;18.52;8.93;;;;;;;5.78;57.82;101413.69;5060368;28;20064;-67
2023/01/07 01:00:14;;;;;;;18.73;10.13;;;;;;;5.84;57.67;101416.22;5061247;28;20081;-66
2023/01/07 01:02:40;;;;;;;24.20;11.20;;;;;;;5.88;57.35;101415.28;5057411;28;20032;-67
2023/01/07 01:05:09;;;;;;;16.58;8.52;;;;;;;5.72;57.88;101414.59;5061903;28;20036;-67
2023/01/07 01:07:36;;;;;;;19.00;10.05;;;;;;;5.58;58.38;101422.53;5061397;28;20040;-66
2023/01/07 01:10:03;;;;;;;19.52;9.73;;;;;;;5.69;58.48;101413.78;5064207;28;20091;-66
2023/01/07 01:12:28;;;;;;;20.63;10.15;;;;;;;5.88;58.16;101404.91;5068022;28;20285;-66
2023/01/07 01:14:54;;;;;;;19.70;9.85;;;;;;;5.88;57.89;101402.31;5068964;28;20428;-67
2023/01/07 01:17:22;;;;;;;20.63;9.75;;;;;;;5.79;58.55;101405.91;5065599;28;20032;-66
2023/01/07 01:19:47;;;;;;;18.65;9.40;;;;;;;5.33;60.30;101408.13;5067505;28;20450;-66
2023/01/07 01:22:13;;;;;;;24.38;10.25;;;;;;;5.68;59.34;101410.31;5069531;28;20237;-66
2023/01/07 01:24:38;;;;;;;22.35;11.57;;;;;;;6.04;58.74;101401.25;5059965;28;20067;-66
2023/01/07 01:27:04;;;;;;;22.90;11.27;;;;;;;6.17;58.11;101404.56;5063958;28;20764;-66
2023/01/07 01:29:29;;;;;;;20.88;11.35;;;;;;;6.09;58.73;101404.66;5066952;28;20408;-66
2023/01/07 01:31:57;;;;;;;20.23;10.13;;;;;;;5.96;59.01;101394.44;5057870;28;20898;-66
2023/01/07 01:34:31;;;;;;;;;;;;;;;6.19;58.66;101392.41;5062303;28;20048;-66
2023/01/07 01:36:59;;;;;;;20.58;10.40;;;;;;;6.33;58.04;101402.66;5079250;27;20009;-66
2023/01/07 01:39:27;;;;;;;25.58;11.40;;;;;;;6.02;59.59;101390.03;5067754;28;20044;-67
2023/01/07 01:41:53;;;;;;;25.10;10.82;;;;;;;6.29;58.38;101395.78;5064415;28;20044;-67
2023/01/07 01:44:27;;;;;;;20.92;10.27;;;;;;;5.94;59.86;101391.88;5063099;28;20056;-66
2023/01/07 01:46:53;;;;;;;20.95;10.27;;;;;;;6.29;58.88;101396.63;5053391;28;20670;-67
2023/01/07 01:49:24;;;;;;;22.33;11.57;;;;;;;6.35;58.73;101390.50;5063562;28;20064;-66
2023/01/07 01:52:00;;;;;;;24.83;11.63;;;;;;;6.47;58.48;101395.50;5059970;28;20036;-66
2023/01/07 01:54:27;;;;;;;22.00;12.45;;;;;;;6.39;58.89;101384.38;5058012;28;20190;-66
2023/01/07 01:56:57;;;;;;;22.25;11.82;;;;;;;6.20;59.74;101377.72;5047917;28;20035;-66
2023/01/07 01:59:27;;;;;;;20.90;11.18;;;;;;;6.34;59.08;101380.13;5061801;28;20035;-66
2023/01/07 02:01:55;;;;;;;19.38;10.63;;;;;;;6.44;58.89;101381.69;5064585;28;20333;-66
2023/01/07 02:04:23;;;;;;;22.67;10.95;;;;;;;6.52;58.63;101369.47;5079535;27;20483;-67
2023/01/07 02:06:59;;;;;;;21.23;11.63;;;;;;;6.67;58.67;101374.44;5065365;27;20028;-66
2023/01/07 02:09:27;;;;;;;23.38;12.45;;;;;;;6.66;58.73;101372.72;5064711;28;20056;-66
2023/01/07 02:12:03;;;;;;;20.55;11.57;;;;;;;6.75;58.47;101369.09;5071960;27;20334;-66
2023/01/07 02:14:48;;;;;;;21.05;10.55;;;;;;;6.76;58.69;101368.25;5042114;28;20037;-67
2023/01/07 02:17:58;;;;;;;20.13;11.07;;;;;;;6.79;58.97;101364.72;5062409;28;20032;-66
2023/01/07 02:20:46;;;;;;;24.88;11.30;;;;;;;6.85;58.78;101359.44;5059288;28;20155;-69
2023/01/07 02:23:41;;;;;;;16.70;10.30;;;;;;;6.83;59.46;101367.25;5061442;28;20029;-66
2023/01/07 02:26:45;;;;;;;18.88;11.23;;;;;;;6.99;59.10;101359.19;5060611;28;20390;-66
2023/01/07 02:29:32;;;;;;;21.83;11.52;;;;;;;6.87;59.69;101353.31;5068408;28;20048;-68
2023/01/07 02:31:57;;;;;;;18.25;11.02;;;;;;;6.68;60.65;101357.09;5059576;28;20490;-67
2023/01/07 02:34:30;;;;;;;21.00;10.73;;;;;;;6.98;59.71;101350.56;5061829;28;20040;-67
2023/01/07 02:37:11;;;;;;;19.30;10.48;;;;;;;7.15;59.40;101350.22;5064699;28;20042;-67
2023/01/07 02:40:04;;;;;;;22.80;11.88;;;;;;;7.19;59.65;101353.66;5061748;28;20043;-67
2023/01/07 02:43:02;;;;;;;22.02;11.07;;;;;;;6.88;60.62;101351.59;5052782;28;20088;-66
2023/01/07 02:45:32;;;;;;;19.50;11.00;;;;;;;6.61;62.12;101352.91;5062638;28;20043;-65
2023/01/07 02:48:06;;;;;;;21.38;11.32;;;;;;;6.68;61.87;101344.13;5056858;28;20550;-66
2023/01/07 02:50:32;;;;;;;17.85;10.30;;;;;;;7.24;60.34;101344.88;5061471;28;20036;-66
2023/01/07 02:52:58;;;;;;;19.20;10.77;;;;;;;6.99;61.50;101336.66;5056824;28;20036;-66
2023/01/07 02:55:57;;;;;;;20.90;10.73;;;;;;;7.33;60.05;101326.53;5062216;28;20109;-66
2023/01/07 02:58:38;;;;;;;17.27;9.43;;;;;;;7.27;61.09;101329.22;5045039;28;20035;-68
2023/01/07 03:01:15;;;;;;;19.83;10.30;;;;;;;7.09;61.44;101327.81;5074987;28;20055;-66
2023/01/07 03:04:09;;;;;;;19.90;10.55;;;;;;;7.02;62.74;101320.16;5066628;28;20045;-66
2023/01/07 03:07:00;;;;;;;20.15;10.68;;;;;;;7.22;61.43;101325.88;5055183;28;20051;-67
2023/01/07 03:10:04;;;;;;;18.17;10.55;;;;;;;7.56;60.92;101320.03;5063619;28;20040;-66
2023/01/07 03:12:41;;;;;;;17.77;10.30;;;;;;;7.71;60.04;101318.84;5063160;28;20032;-65
2023/01/07 03:15:07;;;;;;;17.40;11.13;;;;;;;7.19;62.29;101323.31;5057755;28;20066;-65
2023/01/07 03:17:39;;;;;;;16.45;9.85;;;;;;;6.73;63.47;101316.34;5060718;28;20090;-67
2023/01/07 03:20:10;;;;;;;18.65;10.85;;;;;;;6.62;64.49;101310.44;5057197;28;20162;-66
2023/01/07 03:22:40;;;;;;;19.10;11.32;;;;;;;7.07;62.76;101310.56;5054287;28;20374;-67
2023/01/07 03:25:06;;;;;;;18.08;10.20;;;;;;;6.93;63.87;101313.38;5061172;28;20047;-66
2023/01/07 03:27:34;;;;;;;20.35;11.13;;;;;;;6.74;64.71;101312.00;5063088;28;20294;-67
2023/01/07 03:30:06;;;;;;;24.08;11.10;;;;;;;7.01;63.49;101315.84;5061253;28;20066;-66
2023/01/07 03:32:39;;;;;;;19.60;10.48;;;;;;;7.19;63.09;101310.31;5032096;28;20036;-66
2023/01/07 03:35:06;;;;;;;20.08;11.90;;;;;;;6.99;63.97;101308.06;5058688;28;20044;-68
2023/01/07 03:37:33;;;;;;;18.52;10.95;;;;;;;7.29;63.07;101311.84;5066442;28;20114;-67
2023/01/07 03:39:59;;;;;;;20.45;11.02;;;;;;;7.06;64.06;101309.66;5050360;28;20709;-66
2023/01/07 03:42:38;;;;;;;19.70;11.23;;;;;;;7.43;62.61;101306.38;5062608;28;20038;-67
2023/01/07 03:45:12;;;;;;;19.98;10.68;;;;;;;7.51;62.41;101296.69;5047634;28;20040;-66
2023/01/07 03:47:42;;;;;;;23.77;11.38;;;;;;;7.54;62.33;101295.75;5042615;28;20591;-65
2023/01/07 03:50:09;;;;;;;16.48;10.57;;;;;;;7.43;63.01;101297.72;5042890;28;20123;-66
2023/01/07 03:52:38;;;;;;;21.90;11.80;;;;;;;7.22;63.67;101299.00;5057310;28;20044;-66
2023/01/07 03:55:04;;;;;;;19.48;10.95;;;;;;;7.44;63.23;101289.03;5065765;28;20051;-66
2023/01/07 03:57:32;;;;;;;19.05;10.82;;;;;;;7.62;62.35;101293.88;5054902;28;20040;-66
2023/01/07 04:00:03;;;;;;;18.23;11.30;;;;;;;7.64;61.91;101281.69;5044584;28;20044;-66
2023/01/07 04:02:39;;;;;;;19.05;11.57;;;;;;;7.72;61.88;101285.00;5059986;28;20037;-67
2023/01/07 04:05:06;;;;;;;17.48;10.65;;;;;;;7.33;63.86;101279.72;5065291;28;20694;-66
2023/01/07 04:07:31;;;;;;;19.83;11.02;;;;;;;7.93;61.84;101268.03;5047382;28;20837;-66
2023/01/07 04:09:57;;;;;;;16.85;10.57;;;;;;;7.33;63.69;101265.81;5064008;28;20629;-66
2023/01/07 04:12:23;;;;;;;17.17;10.85;;;;;;;7.44;63.81;101274.25;5049007;28;20574;-66
2023/01/07 04:14:51;;;;;;;18.45;9.98;;;;;;;7.60;63.08;101269.66;5063042;28;20040;-66
2023/01/07 04:17:17;;;;;;;19.58;10.15;;;;;;;7.24;64.80;101272.06;5065614;28;20045;-66
2023/01/07 04:19:42;;;;;;;17.10;10.50;;;;;;;7.50;63.11;101274.16;5054276;28;20101;-67
2023/01/07 04:22:09;;;;;;;15.68;11.25;;;;;;;7.69;63.31;101274.66;5058097;28;20044;-66
2023/01/07 04:24:37;;;;;;;19.58;10.82;;;;;;;7.74;62.27;101278.00;5059634;28;20366;-66
2023/01/07 04:27:03;;;;;;;19.92;10.82;;;;;;;7.78;62.43;101280.53;5064124;28;20032;-66
2023/01/07 04:29:29;;;;;;;17.58;11.25;;;;;;;7.16;64.54;101268.78;5063811;28;20387;-66
2023/01/07 04:31:55;;;;;;;16.67;10.82;;;;;;;7.72;62.86;101274.59;5058674;28;20189;-67
2023/01/07 04:34:21;;;;;;;20.52;11.52;;;;;;;7.51;62.95;101269.78;5049250;28;20044;-67
2023/01/07 04:36:46;;;;;;;18.55;11.18;;;;;;;7.29;63.80;101272.84;5062106;28;20580;-67
2023/01/07 04:39:12;;;;;;;20.05;11.90;;;;;;;6.87;65.37;101261.53;5061791;28;20493;-66
2023/01/07 04:41:38;;;;;;;21.27;12.23;;;;;;;7.57;62.97;101274.06;5075664;28;20035;-66
2023/01/07 04:44:04;;;;;;;21.17;11.18;;;;;;;7.96;61.60;101269.75;5063469;28;20208;-67
2023/01/07 04:46:29;;;;;;;20.00;11.60;;;;;;;7.63;62.75;101273.94;5064409;28;20329;-66
2023/01/07 04:48:55;;;;;;;18.23;11.05;;;;;;;7.80;62.41;101257.94;5064536;28;20563;-67
2023/01/07 04:51:23;;;;;;;19.08;11.25;;;;;;;8.00;61.69;101260.94;5084582;28;20051;-66
2023/01/07 04:53:49;;;;;;;20.70;12.88;;;;;;;7.42;62.98;101260.47;5068394;28;20501;-66
2023/01/07 04:56:15;;;;;;;16.98;11.73;;;;;;;7.90;62.47;101254.25;5062602;28;20561;-66
2023/01/07 04:58:44;;;;;;;16.92;10.75;;;;;;;7.62;63.07;101254.00;5051471;28;20096;-67
2023/01/07 05:01:10;;;;;;;20.52;12.15;;;;;;;7.88;62.17;101251.69;5061812;28;20037;-67
2023/01/07 05:03:36;;;;;;;19.52;11.75;;;;;;;7.81;62.23;101246.66;5060502;28;20055;-67
2023/01/07 05:06:02;;;;;;;19.55;12.05;;;;;;;8.19;60.66;101247.53;5069396;28;20044;-67
2023/01/07 05:08:28;;;;;;;20.55;12.45;;;;;;;7.91;61.73;101250.75;5049668;28;20032;-66
2023/01/07 05:10:54;;;;;;;18.25;11.23;;;;;;;8.10;60.78;101254.66;5064236;28;20036;-67
2023/01/07 05:13:22;;;;;;;20.05;12.82;;;;;;;7.77;61.76;101252.81;5074506;28;20643;-67
2023/01/07 05:15:50;;;;;;;19.67;11.35;;;;;;;8.04;61.08;101246.97;5050511;28;20510;-66
2023/01/07 05:18:17;;;;;;;16.92;11.68;;;;;;;7.92;61.40;101255.09;5065845;28;20102;-65
2023/01/07 05:20:47;;;;;;;14.52;10.38;;;;;;;7.73;61.49;101254.63;5063524;28;20287;-65
2023/01/07 05:23:13;;;;;;;18.92;11.50;;;;;;;8.33;60.10;101245.41;5055682;27;20040;-67
2023/01/07 05:25:39;;;;;;;18.38;11.25;;;;;;;8.30;59.87;101245.50;5046441;28;20055;-67
2023/01/07 05:28:04;;;;;;;17.70;11.65;;;;;;;7.82;61.42;101245.75;5070041;28;20189;-67
2023/01/07 05:30:33;;;;;;;20.73;11.23;;;;;;;7.87;61.12;101249.09;5078198;27;20119;-67
2023/01/07 05:33:01;;;;;;;18.30;10.98;;;;;;;7.83;61.06;101244.88;5060792;28;20133;-67
2023/01/07 05:35:27;;;;;;;19.35;11.18;;;;;;;7.74;61.35;101249.38;5069746;27;20043;-67
2023/01/07 05:37:52;;;;;;;16.02;11.20;;;;;;;8.30;59.72;101245.50;5064634;28;20053;-66
2023/01/07 05:40:18;;;;;;;16.15;10.75;;;;;;;7.76;61.17;101244.16;5068951;28;20773;-66
2023/01/07 05:42:44;;;;;;;17.40;10.73;;;;;;;8.01;60.83;101243.59;5061763;28;20147;-66
2023/01/07 05:45:10;;;;;;;17.98;11.60;;;;;;;7.79;61.09;101246.69;5067175;28;20039;-66
2023/01/07 05:47:35;;;;;;;18.55;11.80;;;;;;;7.91;60.32;101242.94;5060793;28;20432;-66
2023/01/07 05:50:01;;;;;;;13.32;9.57;;;;;;;7.98;60.70;101244.53;5068885;28;20484;-65
2023/01/07 05:52:26;;;;;;;14.18;10.27;;;;;;;7.90;60.28;101243.84;5064304;28;20500;-66
2023/01/07 05:54:51;;;;;;;17.48;11.27;;;;;;;7.72;60.93;101247.72;5061945;28;20092;-66
2023/01/07 05:57:17;;;;;;;15.57;10.80;;;;;;;8.12;59.80;101242.44;5063868;28;20832;-67
2023/01/07 05:59:43;;;;;;;17.08;10.40;;;;;;;8.19;59.38;101237.94;5061496;28;20059;-66
2023/01/07 06:02:08;;;;;;;15.80;11.30;;;;;;;8.13;59.60;101251.97;5060367;28;20063;-66
2023/01/07 06:04:33;;;;;;;14.43;9.07;;;;;;;7.94;60.11;101248.94;5059641;28;20123;-66
2023/01/07 06:07:00;;;;;;;16.02;10.05;;;;;;;8.19;59.17;101244.91;5063806;28;20065;-67
2023/01/07 06:09:25;;;;;;;16.95;10.63;;;;;;;8.28;59.03;101248.13;5062239;28;20173;-67
2023/01/07 06:11:50;;;;;;;12.55;9.32;;;;;;;8.28;58.82;101247.28;5076479;27;20020;-67
2023/01/07 06:14:16;;;;;;;15.20;10.60;;;;;;;7.73;60.38;101250.31;5061205;28;20052;-66
2023/01/07 06:16:41;;;;;;;19.05;10.02;;;;;;;8.19;59.20;101253.56;5048495;28;20625;-66
2023/01/07 06:19:07;;;;;;;17.67;9.90;;;;;;;8.47;58.37;101252.88;5064112;28;20044;-66
2023/01/07 06:21:32;;;;;;;12.48;8.70;;;;;;;8.38;58.23;101243.56;5063480;28;20039;-66
2023/01/07 06:23:58;;;;;;;15.82;9.63;;;;;;;7.75;60.42;101242.44;5064018;28;20036;-66
2023/01/07 06:26:25;;;;;;;15.05;10.20;;;;;;;7.65;60.77;101252.19;5061438;28;20524;-67
2023/01/07 06:28:51;;;;;;;13.95;10.43;;;;;;;7.84;59.72;101250.03;5063694;28;20147;-66
2023/01/07 06:31:16;;;;;;;13.85;9.35;;;;;;;8.00;59.50;101250.53;5064528;28;20420;-67
2023/01/07 06:33:44;;;;;;;14.27;9.35;;;;;;;8.05;59.18;101246.09;5057194;28;20055;-66
2023/01/07 06:36:09;;;;;;;13.02;8.88;;;;;;;8.37;57.84;101244.47;5061818;28;20504;-66
2023/01/07 06:38:35;;;;;;;11.50;9.05;;;;;;;8.12;58.60;101233.78;5071570;27;20051;-66
2023/01/07 06:41:03;;;;;;;12.23;9.00;;;;;;;8.02;58.89;101230.53;5079273;28;20053;-67
2023/01/07 06:43:29;;;;;;;14.30;8.88;;;;;;;8.17;58.60;101233.69;5063282;28;20032;-66
2023/01/07 06:45:55;;;;;;;16.80;8.63;;;;;;;7.79;60.02;101225.03;5060393;28;20425;-66
2023/01/07 06:48:20;;;;;;;11.80;9.52;;;;;;;8.25;58.68;101231.72;5060485;28;20658;-66
2023/01/07 06:50:46;;;;;;;14.07;9.25;;;;;;;8.07;58.83;101239.13;5061830;28;20040;-66
2023/01/07 06:53:11;;;;;;;11.65;8.93;;;;;;;8.07;58.94;101239.13;5064404;28;20823;-67
2023/01/07 06:55:39;;;;;;;11.10;8.23;;;;;;;8.01;58.91;101239.25;5055237;28;20131;-66
2023/01/07 06:58:04;;;;;;;11.23;8.60;;;;;;;7.68;59.88;101236.50;5078776;27;20036;-67
2023/01/07 07:00:30;;;;;;;19.17;9.98;;;;;;;8.00;58.96;101239.28;5058400;28;21786;-67
2023/01/07 07:02:55;;;;;;;14.57;9.15;;;;;;;7.95;58.95;101239.38;5060864;28;20582;-67
2023/01/07 07:05:21;;;;;;;13.38;8.60;;;;;;;8.00;59.25;101237.53;5064561;28;20186;-67
2023/01/07 07:07:46;;;;;;;12.60;8.45;;;;;;;7.88;59.44;101238.66;5058891;28;20139;-66
2023/01/07 07:10:12;;;;;;;14.18;8.88;;;;;;;8.31;58.01;101242.00;5060888;28;20036;-66
2023/01/07 07:12:40;;;;;;;13.98;8.82;;;;;;;7.83;59.47;101231.88;5049795;28;20036;-67
2023/01/07 07:15:07;;;;;;;13.00;8.20;;;;;;;7.82;59.25;101232.75;5063649;28;20767;-66
2023/01/07 07:17:33;;;;;;;11.82;8.25;;;;;;;8.09;58.46;101223.44;5058596;28;20036;-68
2023/01/07 07:20:01;;;;;;;10.20;7.30;;;;;;;8.07;58.62;101218.28;5062237;28;20043;-66
2023/01/07 07:22:29;;;;;;;9.45;7.57;;;;;;;7.63;60.09;101220.16;5062358;28;20032;-66
2023/01/07 07:24:57;;;;;;;11.73;8.23;;;;;;;7.69;59.68;101208.75;5076916;27;20079;-66
2023/01/07 07:27:23;;;;;;;12.30;7.93;;;;;;;7.59;59.79;101221.09;5062794;28;20102;-68
2023/01/07 07:29:53;;;;;;;13.18;7.75;;;;;;;7.39;60.68;101218.06;5060634;28;20675;-65
2023/01/07 07:32:19;;;;;;;12.57;7.15;;;;;;;7.03;61.28;101221.38;5042220;28;20553;-66
2023/01/07 07:34:44;;;;;;;10.00;6.68;;;;;;;7.71;59.29;101213.03;5074837;28;20083;-66
2023/01/07 07:37:09;;;;;;;13.27;7.45;;;;;;;7.86;59.08;101224.84;5062841;28;20839;-65
2023/01/07 07:39:35;;;;;;;13.07;6.45;;;;;;;8.04;58.20;101218.34;5047256;28;20413;-65
2023/01/07 07:42:04;;;;;;;14.32;7.00;;;;;;;7.92;58.58;101222.09;5062492;28;20043;-71
2023/01/07 07:44:29;;;;;;;8.80;6.82;;;;;;;7.60;59.35;101216.75;5058188;28;20090;-66
2023/01/07 07:46:55;;;;;;;12.32;7.47;;;;;;;7.62;59.21;101215.81;5060021;28;20028;-67
2023/01/07 07:49:20;;;;;;;11.52;7.53;;;;;;;7.79;59.03;101220.66;5056539;28;21647;-67
2023/01/07 07:51:48;;;;;;;9.48;6.93;;;;;;;7.67;59.10;101208.78;5057193;28;20238;-67
2023/01/07 07:54:13;;;;;;;8.15;6.13;;;;;;;7.73;58.71;101213.88;5042525;28;20036;-67
2023/01/07 07:56:41;;;;;;;10.45;5.88;;;;;;;7.61;59.44;101208.94;5059262;28;20031;-66
2023/01/07 07:59:10;;;;;;;10.55;6.13;;;;;;;6.77;61.70;101203.66;5061836;28;20037;-66
2023/01/07 08:01:35;;;;;;;7.95;5.60;;;;;;;7.41;60.01;101213.69;5059719;28;20036;-66
2023/01/07 08:04:01;;;;;;;14.63;6.68;;;;;;;7.77;58.87;101205.97;5060150;28;20040;-66
2023/01/07 08:06:26;;;;;;;9.70;5.63;;;;;;;7.85;58.34;101202.31;5061336;28;20043;-66
2023/01/07 08:08:57;;;;;;;7.20;5.63;;;;;;;8.29;57.22;101202.13;5070929;28;20032;-66
2023/01/07 08:11:22;;;;;;;10.00;6.47;;;;;;;7.97;57.92;101195.94;5062488;28;20047;-66
2023/01/07 08:13:53;;;;;;;8.60;5.35;;;;;;;8.09;57.55;101195.69;5057758;28;20090;-66
2023/01/07 08:16:18;;;;;;;7.35;4.78;;;;;;;7.89;57.90;101197.88;5073179;28;20036;-68
2023/01/07 08:18:46;;;;;;;6.82;5.00;;;;;;;7.64;58.91;101203.63;5071044;27;20033;-67
2023/01/07 08:21:13;;;;;;;7.93;5.30;;;;;;;8.06;57.66;101203.53;5069833;28;20144;-68
2023/01/07 08:23:53;;;;;;;7.68;5.07;;;;;;;7.64;58.81;101203.63;5064486;28;20024;-67
2023/01/07 08:26:19;;;;;;;10.77;5.32;;;;;;;7.94;57.58;101201.25;5060488;28;20052;-67
2023/01/07 08:28:44;;;;;;;7.18;5.82;;;;;;;7.86;57.99;101203.16;5084436;27;20053;-67
2023/01/07 08:31:10;;;;;;;6.65;4.63;;;;;;;7.99;57.55;101191.56;5065656;28;20796;-67
2023/01/07 08:33:37;;;;;;;7.93;4.55;;;;;;;8.03;57.43;101193.22;5061307;28;20570;-67
2023/01/07 08:36:04;;;;;;;6.03;4.38;;;;;;;7.48;59.10;101186.66;5067456;28;20055;-66
2023/01/07 08:38:31;;;;;;;7.95;5.03;;;;;;;7.56;58.17;101191.69;5069824;28;20089;-66
2023/01/07 08:41:00;;;;;;;8.10;4.63;;;;;;;7.61;58.74;101188.13;5077049;28;20118;-66
2023/01/07 08:43:26;;;;;;;5.20;4.05;;;;;;;7.85;57.92;101188.47;5062617;28;20042;-66
2023/01/07 08:45:54;;;;;;;4.20;3.53;;;;;;;7.40;58.97;101186.81;5066259;28;20641;-67
2023/01/07 08:48:19;;;;;;;6.55;4.68;;;;;;;7.63;58.46;101190.69;5069834;28;20139;-66
2023/01/07 08:50:50;;;;;;;6.40;4.35;;;;;;;8.28;56.57;101188.25;5064447;28;21159;-66
2023/01/07 08:53:16;;;;;;;6.13;3.50;;;;;;;8.06;57.27;101189.69;5063870;28;20386;-66
2023/01/07 08:55:41;;;;;;;3.97;3.58;;;;;;;8.24;56.61;101183.16;5060832;28;20043;-65
2023/01/07 08:58:07;;;;;;;5.80;4.40;;;;;;;7.63;58.33;101194.13;5068854;28;20040;-66
2023/01/07 09:00:32;;;;;;;8.80;4.28;;;;;;;7.58;58.39;101190.78;5065178;28;20043;-65
2023/01/07 09:02:58;;;;;;;7.03;3.63;;;;;;;8.19;56.84;101196.28;5058533;28;20032;-66
2023/01/07 09:05:23;;;;;;;4.97;3.53;;;;;;;7.92;57.22;101183.06;5063653;28;20569;-66
2023/01/07 09:07:52;;;;;;;5.20;3.67;;;;;;;8.16;56.28;101193.78;5062581;28;20689;-67
2023/01/07 09:10:23;;;;;;;4.93;4.03;;;;;;;8.30;56.16;101183.00;5062975;28;20483;-66
2023/01/07 09:12:49;;;;;;;5.90;4.05;;;;;;;8.55;55.15;101178.84;5060052;28;20394;-66
2023/01/07 09:15:15;;;;;;;7.72;3.78;;;;;;;7.62;58.05;101179.41;5065201;28;20079;-67
2023/01/07 09:17:40;;;;;;;4.88;3.90;;;;;;;8.21;56.05;101178.03;5057628;28;20040;-66
2023/01/07 09:20:13;;;;;;;6.00;4.10;;;;;;;7.32;58.80;101171.38;5065706;28;20782;-67
2023/01/07 09:22:38;;;;;;;5.10;3.30;;;;;;;7.92;57.63;101172.66;5065376;28;20047;-67
2023/01/07 09:25:05;;;;;;;6.82;3.67;;;;;;;7.95;56.41;101169.09;5064516;28;20785;-66
2023/01/07 09:27:33;;;;;;;5.95;3.80;;;;;;;8.02;56.41;101165.44;5063661;28;20044;-67
2023/01/07 09:29:58;;;;;;;7.47;3.92;;;;;;;8.28;55.80;101159.59;5062011;28;20039;-67
2023/01/07 09:32:27;;;;;;;4.95;3.28;;;;;;;8.17;55.94;101160.78;5064230;28;20035;-66
2023/01/07 09:34:53;;;;;;;5.57;3.78;;;;;;;8.47;55.25;101157.38;5060984;28;20044;-67
2023/01/07 09:37:19;;;;;;;5.15;3.55;;;;;;;8.64;54.36;101150.84;5063644;28;20140;-66
2023/01/07 09:39:45;;;;;;;5.13;2.97;;;;;;;8.43;54.84;101153.16;5063408;28;20042;-67
2023/01/07 09:42:24;;;;;;;3.72;3.30;;;;;;;8.81;54.16;101153.88;5064499;28;20400;-67
2023/01/07 09:44:55;;;;;;;;;;;;;;;8.56;54.97;101154.53;5052566;28;20556;-67
2023/01/07 09:47:28;;;;;;;5.57;2.70;;;;;;;8.55;54.79;101155.41;5064005;28;20238;-67
2023/01/07 09:50:02;;;;;;;5.28;2.63;;;;;;;8.26;55.43;101140.56;5083478;27;20047;-66
2023/01/07 09:52:36;;;;;;;3.85;2.80;;;;;;;8.62;54.57;101147.44;5071100;28;20036;-67
2023/01/07 09:55:11;;;;;;;3.08;2.78;;;;;;;8.52;54.75;101160.72;5055086;27;20055;-65
2023/01/07 09:57:41;;;;;;;4.53;2.72;;;;;;;8.54;54.67;101150.25;5058728;28;20047;-64
2023/01/07 10:00:19;;;;;;;3.25;2.28;;;;;;;8.57;54.41;101151.00;5064525;28;20039;-67
2023/01/07 10:03:02;;;;;;;4.57;1.95;;;;;;;8.92;53.40;101138.78;5061353;28;20589;-67
2023/01/07 10:05:41;;;;;;;3.35;2.08;;;;;;;8.21;55.00;101150.25;5065388;28;20059;-67
2023/01/07 10:08:41;;;;;;;4.10;2.13;;;;;;;8.35;54.73;101139.47;5060056;28;20427;-67
2023/01/07 10:11:28;;;;;;;2.40;1.95;;;;;;;8.12;55.30;101134.84;5068200;28;20500;-67
2023/01/07 10:14:24;;;;;;;4.72;1.90;;;;;;;8.19;55.08;101127.75;5064815;28;20044;-67
2023/01/07 10:17:20;;;;;;;3.28;1.88;;;;;;;8.81;53.57;101127.81;5071919;28;20048;-66
2023/01/07 10:19:51;;;;;;;5.45;2.00;;;;;;;8.29;55.33;101124.00;5067130;28;20048;-67
2023/01/07 10:22:42;;;;;;;2.65;1.65;;;;;;;8.38;54.85;101118.53;5059860;28;20581;-67
2023/01/07 10:25:19;;;;;;;7.22;2.10;;;;;;;8.11;55.26;101115.78;5065547;28;20502;-66
2023/01/07 10:27:48;;;;;;;4.95;1.90;;;;;;;8.63;53.75;101110.03;5060016;28;20036;-67
2023/01/07 10:30:18;;;;;;;6.53;2.70;;;;;;;8.31;54.71;101109.19;5063534;28;20035;-67
2023/01/07 10:32:45;;;;;;;5.28;2.63;;;;;;;8.44;54.55;101100.13;5064291;28;20879;-67
2023/01/07 10:35:20;;;;;;;7.00;2.55;;;;;;;8.63;54.31;101108.31;5059932;28;20903;-66
2023/01/07 10:37:45;;;;;;;4.22;2.63;;;;;;;9.18;52.71;101108.47;5056825;28;20259;-66
2023/01/07 10:40:20;;;;;;;3.95;2.35;;;;;;;8.04;55.40;101111.59;5063898;28;20041;-66
2023/01/07 10:42:52;;;;;;;3.65;2.53;;;;;;;8.55;54.14;101103.28;5060511;28;21754;-67
2023/01/07 10:45:55;;;;;;;4.63;2.00;;;;;;;8.46;53.79;101089.69;5061789;28;20070;-68
2023/01/07 10:48:47;;;;;;;3.05;2.00;;;;;;;8.80;53.04;101079.19;4986490;28;20116;-66
2023/01/07 10:51:18;;;;;;;6.33;2.30;;;;;;;8.27;53.87;101081.50;5058951;28;20041;-66
2023/01/07 10:54:11;;;;;;;3.38;2.00;;;;;;;8.75;53.20;101073.25;5059340;28;20039;-66
2023/01/07 10:56:53;;;;;;;6.47;2.70;;;;;;;9.06;51.84;101077.56;5061532;28;20465;-66
2023/01/07 10:59:21;;;;;;;3.30;1.70;;;;;;;9.08;51.72;101083.59;5063429;28;20435;-67
2023/01/07 11:01:53;;;;;;;3.33;1.90;;;;;;;8.27;53.51;101066.75;5061076;28;20044;-64
2023/01/07 11:04:19;;;;;;;;;;;;;;;9.19;51.74;101063.25;5055246;28;20044;-67
2023/01/07 11:07:09;;;;;;;6.63;1.45;;;;;;;9.63;50.92;101060.09;5063281;28;19924;-67
2023/01/07 11:09:39;;;;;;;1.77;1.10;;;;;;;9.17;51.20;101058.06;5059246;28;20396;-67
2023/01/07 11:12:21;;;;;;;1.55;0.82;;;;;;;9.80;49.44;101044.75;5079034;28;20051;-67
2023/01/07 11:14:48;;;;;;;3.85;1.52;;;;;;;9.13;50.97;101045.19;5062927;28;21745;-66
2023/01/07 11:17:27;;;;;;;1.90;1.02;;;;;;;9.72;49.89;101045.00;5060114;28;20498;-67
2023/01/07 11:19:55;;;;;;;4.38;1.38;;;;;;;9.61;49.98;101034.06;5065237;28;21053;-66
2023/01/07 11:22:24;;;;;;;4.03;1.50;;;;;;;8.71;51.42;101032.53;5073557;27;20437;-66
2023/01/07 11:24:51;;;;;;;4.05;0.75;;;;;;;9.05;51.37;101029.75;5054204;27;20036;-66
2023/01/07 11:27:25;;;;;;;1.90;0.85;;;;;;;8.88;51.36;101030.28;5058971;28;20044;-66
2023/01/07 11:30:02;;;;;;;2.85;1.45;;;;;;;9.35;49.94;101029.72;5061935;28;20058;-69
2023/01/07 11:32:34;;;;;;;4.43;1.73;;;;;;;9.43;49.63;101021.63;5063288;28;20039;-65
2023/01/07 11:35:18;;;;;;;1.98;0.70;;;;;;;9.35;50.04;101012.28;5059993;28;20039;-66
2023/01/07 11:37:46;;;;;;;1.52;0.63;;;;;;;9.29;50.10;101009.88;5060212;28;20549;-67